sensor_id;sensor_type;location;lat;lon;timestamp;temperature;humidity
439;DHT22;206;48.782;9.252;2022-09-16T00:00:28;16.40;61.50
439;DHT22;206;48.782;9.252;2022-09-16T00:02:54;16.40;60.80
439;DHT22;206;48.782;9.252;2022-09-16T00:05:20;16.40;61.40
439;DHT22;206;48.782;9.252;2022-09-16T00:07:46;16.40;61.70
439;DHT22;206;48.782;9.252;2022-09-16T00:10:11;16.40;61.70
439;DHT22;206;48.782;9.252;2022-09-16T00:12:38;16.50;61.60
439;DHT22;206;48.782;9.252;2022-09-16T00:15:04;16.60;61.10
439;DHT22;206;48.782;9.252;2022-09-16T00:17:30;16.50;60.70
439;DHT22;206;48.782;9.252;2022-09-16T00:19:56;16.60;61.10
439;DHT22;206;48.782;9.252;2022-09-16T00:22:23;16.60;61.00
439;DHT22;206;48.782;9.252;2022-09-16T00:24:49;16.60;60.70
439;DHT22;206;48.782;9.252;2022-09-16T00:27:15;16.50;61.50
439;DHT22;206;48.782;9.252;2022-09-16T00:29:40;16.60;61.30
439;DHT22;206;48.782;9.252;2022-09-16T00:32:06;16.60;61.20
439;DHT22;206;48.782;9.252;2022-09-16T00:34:32;16.60;61.10
439;DHT22;206;48.782;9.252;2022-09-16T00:36:57;16.60;61.10
439;DHT22;206;48.782;9.252;2022-09-16T00:39:23;16.60;60.50
439;DHT22;206;48.782;9.252;2022-09-16T00:41:49;16.60;61.60
439;DHT22;206;48.782;9.252;2022-09-16T00:44:50;16.60;61.60
439;DHT22;206;48.782;9.252;2022-09-16T00:47:20;16.60;62.20
439;DHT22;206;48.782;9.252;2022-09-16T00:49:47;16.60;62.40
439;DHT22;206;48.782;9.252;2022-09-16T00:52:13;16.60;63.00
439;DHT22;206;48.782;9.252;2022-09-16T00:54:40;16.50;63.70
439;DHT22;206;48.782;9.252;2022-09-16T00:57:07;16.50;64.10
439;DHT22;206;48.782;9.252;2022-09-16T00:59:37;16.50;64.50
439;DHT22;206;48.782;9.252;2022-09-16T01:02:07;16.50;64.90
439;DHT22;206;48.782;9.252;2022-09-16T01:04:45;16.50;65.40
439;DHT22;206;48.782;9.252;2022-09-16T01:07:12;16.50;65.90
439;DHT22;206;48.782;9.252;2022-09-16T01:09:38;16.50;65.90
439;DHT22;206;48.782;9.252;2022-09-16T01:12:04;16.50;66.20
439;DHT22;206;48.782;9.252;2022-09-16T01:14:30;16.40;66.00
439;DHT22;206;48.782;9.252;2022-09-16T01:33:10;16.20;68.10
439;DHT22;206;48.782;9.252;2022-09-16T01:43:24;16.30;69.00
439;DHT22;206;48.782;9.252;2022-09-16T01:45:59;16.30;70.40
439;DHT22;206;48.782;9.252;2022-09-16T01:48:44;16.30;70.10
439;DHT22;206;48.782;9.252;2022-09-16T01:57:20;16.20;70.20
439;DHT22;206;48.782;9.252;2022-09-16T02:00:09;16.10;71.50
439;DHT22;206;48.782;9.252;2022-09-16T02:03:06;16.00;72.40
439;DHT22;206;48.782;9.252;2022-09-16T02:05:38;15.90;73.20
439;DHT22;206;48.782;9.252;2022-09-16T02:08:10;15.90;73.50
439;DHT22;206;48.782;9.252;2022-09-16T02:10:55;15.90;72.50
439;DHT22;206;48.782;9.252;2022-09-16T02:13:32;15.90;73.50
439;DHT22;206;48.782;9.252;2022-09-16T02:16:03;16.00;72.70
439;DHT22;206;48.782;9.252;2022-09-16T02:18:33;15.90;72.60
439;DHT22;206;48.782;9.252;2022-09-16T02:21:02;16.00;73.00
439;DHT22;206;48.782;9.252;2022-09-16T02:23:33;16.00;72.40
439;DHT22;206;48.782;9.252;2022-09-16T02:26:04;16.00;71.50
439;DHT22;206;48.782;9.252;2022-09-16T02:28:37;16.00;71.00
439;DHT22;206;48.782;9.252;2022-09-16T02:31:06;15.90;68.30
439;DHT22;206;48.782;9.252;2022-09-16T02:34:06;15.90;68.50
439;DHT22;206;48.782;9.252;2022-09-16T02:36:33;15.80;67.60
439;DHT22;206;48.782;9.252;2022-09-16T02:39:05;15.90;68.50
439;DHT22;206;48.782;9.252;2022-09-16T02:41:33;15.90;67.30
439;DHT22;206;48.782;9.252;2022-09-16T02:43:59;16.00;65.60
439;DHT22;206;48.782;9.252;2022-09-16T02:47:37;16.00;65.40
439;DHT22;206;48.782;9.252;2022-09-16T02:49:37;16.00;65.40
439;DHT22;206;48.782;9.252;2022-09-16T02:52:54;16.00;63.60
439;DHT22;206;48.782;9.252;2022-09-16T02:57:41;16.10;67.30
439;DHT22;206;48.782;9.252;2022-09-16T03:00:07;16.00;68.00
439;DHT22;206;48.782;9.252;2022-09-16T03:02:33;16.00;58.30
439;DHT22;206;48.782;9.252;2022-09-16T03:05:00;15.90;60.20
439;DHT22;206;48.782;9.252;2022-09-16T03:07:26;16.00;57.40
439;DHT22;206;48.782;9.252;2022-09-16T03:09:52;15.90;56.80
439;DHT22;206;48.782;9.252;2022-09-16T03:20:33;15.80;50.70
439;DHT22;206;48.782;9.252;2022-09-16T03:23:25;15.90;51.80
439;DHT22;206;48.782;9.252;2022-09-16T03:28:46;15.90;51.80
439;DHT22;206;48.782;9.252;2022-09-16T03:31:18;16.00;51.40
439;DHT22;206;48.782;9.252;2022-09-16T03:33:54;16.00;52.80
439;DHT22;206;48.782;9.252;2022-09-16T03:36:25;16.00;53.90
439;DHT22;206;48.782;9.252;2022-09-16T03:38:55;15.90;53.90
439;DHT22;206;48.782;9.252;2022-09-16T03:41:23;15.90;55.00
439;DHT22;206;48.782;9.252;2022-09-16T03:43:56;15.90;54.50
439;DHT22;206;48.782;9.252;2022-09-16T03:46:23;15.90;54.90
439;DHT22;206;48.782;9.252;2022-09-16T03:48:49;15.80;54.20
439;DHT22;206;48.782;9.252;2022-09-16T03:51:15;15.90;55.60
439;DHT22;206;48.782;9.252;2022-09-16T03:53:41;15.90;54.80
439;DHT22;206;48.782;9.252;2022-09-16T03:56:07;15.90;53.80
439;DHT22;206;48.782;9.252;2022-09-16T03:58:33;15.90;53.50
439;DHT22;206;48.782;9.252;2022-09-16T04:01:01;15.90;53.90
439;DHT22;206;48.782;9.252;2022-09-16T04:03:28;15.90;53.00
439;DHT22;206;48.782;9.252;2022-09-16T04:05:55;15.90;52.90
439;DHT22;206;48.782;9.252;2022-09-16T04:08:21;15.90;53.80
439;DHT22;206;48.782;9.252;2022-09-16T04:10:58;15.90;53.80
439;DHT22;206;48.782;9.252;2022-09-16T04:13:24;16.00;53.70
439;DHT22;206;48.782;9.252;2022-09-16T04:15:49;15.90;54.10
439;DHT22;206;48.782;9.252;2022-09-16T04:18:15;16.00;55.10
439;DHT22;206;48.782;9.252;2022-09-16T04:20:41;16.00;55.20
439;DHT22;206;48.782;9.252;2022-09-16T04:23:07;16.00;54.80
439;DHT22;206;48.782;9.252;2022-09-16T04:25:33;16.00;54.20
439;DHT22;206;48.782;9.252;2022-09-16T04:27:59;16.00;54.50
439;DHT22;206;48.782;9.252;2022-09-16T04:30:25;16.00;54.40
439;DHT22;206;48.782;9.252;2022-09-16T04:32:55;16.00;54.70
439;DHT22;206;48.782;9.252;2022-09-16T04:35:21;16.00;55.10
439;DHT22;206;48.782;9.252;2022-09-16T04:37:47;16.00;55.30
439;DHT22;206;48.782;9.252;2022-09-16T04:40:13;16.00;54.90
439;DHT22;206;48.782;9.252;2022-09-16T04:42:39;16.00;53.90
439;DHT22;206;48.782;9.252;2022-09-16T04:45:05;16.00;53.90
439;DHT22;206;48.782;9.252;2022-09-16T04:47:31;15.90;53.80
439;DHT22;206;48.782;9.252;2022-09-16T04:49:56;16.00;53.50
439;DHT22;206;48.782;9.252;2022-09-16T04:52:22;16.00;53.90
439;DHT22;206;48.782;9.252;2022-09-16T04:54:48;15.90;51.70
439;DHT22;206;48.782;9.252;2022-09-16T04:57:13;16.00;53.30
439;DHT22;206;48.782;9.252;2022-09-16T04:59:39;16.00;54.30
439;DHT22;206;48.782;9.252;2022-09-16T05:02:04;15.90;54.00
439;DHT22;206;48.782;9.252;2022-09-16T05:04:30;16.00;56.00
439;DHT22;206;48.782;9.252;2022-09-16T05:06:55;16.00;53.30
439;DHT22;206;48.782;9.252;2022-09-16T05:09:21;16.00;55.20
439;DHT22;206;48.782;9.252;2022-09-16T05:11:47;16.00;57.60
439;DHT22;206;48.782;9.252;2022-09-16T05:14:14;16.00;57.80
439;DHT22;206;48.782;9.252;2022-09-16T05:16:41;16.00;57.30
439;DHT22;206;48.782;9.252;2022-09-16T05:19:07;16.00;56.00
439;DHT22;206;48.782;9.252;2022-09-16T05:21:35;16.00;56.70
439;DHT22;206;48.782;9.252;2022-09-16T05:24:03;16.10;58.50
439;DHT22;206;48.782;9.252;2022-09-16T05:26:30;16.10;57.70
439;DHT22;206;48.782;9.252;2022-09-16T05:28:59;16.10;55.60
439;DHT22;206;48.782;9.252;2022-09-16T05:31:28;16.10;56.60
439;DHT22;206;48.782;9.252;2022-09-16T05:36:27;16.00;57.40
439;DHT22;206;48.782;9.252;2022-09-16T05:38:53;16.00;57.50
439;DHT22;206;48.782;9.252;2022-09-16T05:41:19;16.00;57.30
439;DHT22;206;48.782;9.252;2022-09-16T05:43:45;15.90;56.40
439;DHT22;206;48.782;9.252;2022-09-16T05:46:22;15.90;57.00
439;DHT22;206;48.782;9.252;2022-09-16T05:48:48;16.00;58.60
439;DHT22;206;48.782;9.252;2022-09-16T05:51:16;16.00;60.40
439;DHT22;206;48.782;9.252;2022-09-16T05:53:43;16.00;59.50
439;DHT22;206;48.782;9.252;2022-09-16T05:56:14;16.00;61.00
439;DHT22;206;48.782;9.252;2022-09-16T05:58:40;16.00;61.50
439;DHT22;206;48.782;9.252;2022-09-16T06:01:07;16.00;62.30
439;DHT22;206;48.782;9.252;2022-09-16T06:03:34;16.00;64.70
439;DHT22;206;48.782;9.252;2022-09-16T06:06:02;16.00;64.70
439;DHT22;206;48.782;9.252;2022-09-16T06:08:30;16.00;64.50
439;DHT22;206;48.782;9.252;2022-09-16T06:10:59;16.00;64.50
439;DHT22;206;48.782;9.252;2022-09-16T06:13:25;16.00;64.30
439;DHT22;206;48.782;9.252;2022-09-16T06:15:52;16.00;66.00
439;DHT22;206;48.782;9.252;2022-09-16T06:18:21;16.00;66.20
439;DHT22;206;48.782;9.252;2022-09-16T06:20:47;16.00;65.10
439;DHT22;206;48.782;9.252;2022-09-16T06:23:14;16.00;64.30
439;DHT22;206;48.782;9.252;2022-09-16T06:25:40;15.90;64.10
439;DHT22;206;48.782;9.252;2022-09-16T06:28:06;15.90;65.80
439;DHT22;206;48.782;9.252;2022-09-16T06:30:31;15.90;63.50
439;DHT22;206;48.782;9.252;2022-09-16T06:32:57;15.90;63.50
439;DHT22;206;48.782;9.252;2022-09-16T06:35:23;15.90;63.50
439;DHT22;206;48.782;9.252;2022-09-16T06:37:48;15.90;61.00
439;DHT22;206;48.782;9.252;2022-09-16T06:40:14;15.90;58.60
439;DHT22;206;48.782;9.252;2022-09-16T06:42:39;15.90;59.30
439;DHT22;206;48.782;9.252;2022-09-16T06:45:06;15.90;59.50
439;DHT22;206;48.782;9.252;2022-09-16T06:47:32;15.90;60.40
439;DHT22;206;48.782;9.252;2022-09-16T06:49:58;15.90;60.10
439;DHT22;206;48.782;9.252;2022-09-16T06:52:24;15.90;60.80
439;DHT22;206;48.782;9.252;2022-09-16T06:54:50;16.00;62.90
439;DHT22;206;48.782;9.252;2022-09-16T06:57:16;15.90;58.30
439;DHT22;206;48.782;9.252;2022-09-16T06:59:44;15.90;58.50
439;DHT22;206;48.782;9.252;2022-09-16T07:02:10;15.90;60.00
439;DHT22;206;48.782;9.252;2022-09-16T07:04:36;15.80;59.50
439;DHT22;206;48.782;9.252;2022-09-16T07:07:02;15.80;61.30
439;DHT22;206;48.782;9.252;2022-09-16T07:09:28;15.70;57.40
439;DHT22;206;48.782;9.252;2022-09-16T07:11:54;15.60;59.80
439;DHT22;206;48.782;9.252;2022-09-16T07:14:20;15.50;58.20
439;DHT22;206;48.782;9.252;2022-09-16T07:16:45;15.40;61.00
439;DHT22;206;48.782;9.252;2022-09-16T07:19:11;15.20;64.50
439;DHT22;206;48.782;9.252;2022-09-16T07:21:37;15.20;66.10
439;DHT22;206;48.782;9.252;2022-09-16T07:24:02;15.10;66.40
439;DHT22;206;48.782;9.252;2022-09-16T07:26:33;15.10;66.50
439;DHT22;206;48.782;9.252;2022-09-16T07:29:02;15.20;66.10
439;DHT22;206;48.782;9.252;2022-09-16T07:31:32;15.30;66.60
439;DHT22;206;48.782;9.252;2022-09-16T07:33:58;15.40;64.70
439;DHT22;206;48.782;9.252;2022-09-16T07:36:27;15.40;65.70
439;DHT22;206;48.782;9.252;2022-09-16T07:38:54;15.50;64.20
439;DHT22;206;48.782;9.252;2022-09-16T07:41:24;15.50;64.80
439;DHT22;206;48.782;9.252;2022-09-16T07:43:52;15.40;62.60
439;DHT22;206;48.782;9.252;2022-09-16T07:46:19;15.30;65.70
439;DHT22;206;48.782;9.252;2022-09-16T07:48:47;15.40;66.00
439;DHT22;206;48.782;9.252;2022-09-16T07:51:18;15.30;65.10
439;DHT22;206;48.782;9.252;2022-09-16T07:53:45;15.50;66.50
439;DHT22;206;48.782;9.252;2022-09-16T07:56:17;15.60;62.70
439;DHT22;206;48.782;9.252;2022-09-16T07:58:44;15.60;62.30
439;DHT22;206;48.782;9.252;2022-09-16T08:01:11;15.70;61.00
439;DHT22;206;48.782;9.252;2022-09-16T08:03:38;15.60;58.30
439;DHT22;206;48.782;9.252;2022-09-16T08:06:09;15.60;60.10
439;DHT22;206;48.782;9.252;2022-09-16T08:08:36;15.60;61.00
439;DHT22;206;48.782;9.252;2022-09-16T08:11:02;15.70;60.00
439;DHT22;206;48.782;9.252;2022-09-16T08:13:30;15.70;59.70
439;DHT22;206;48.782;9.252;2022-09-16T08:16:00;15.70;60.40
439;DHT22;206;48.782;9.252;2022-09-16T08:18:26;15.80;59.60
439;DHT22;206;48.782;9.252;2022-09-16T08:20:52;15.90;57.70
439;DHT22;206;48.782;9.252;2022-09-16T08:23:18;16.10;58.70
439;DHT22;206;48.782;9.252;2022-09-16T08:25:43;16.10;59.70
439;DHT22;206;48.782;9.252;2022-09-16T08:28:14;16.10;58.70
439;DHT22;206;48.782;9.252;2022-09-16T08:30:41;16.10;56.70
439;DHT22;206;48.782;9.252;2022-09-16T08:33:07;16.30;57.40
439;DHT22;206;48.782;9.252;2022-09-16T08:35:33;16.30;58.00
439;DHT22;206;48.782;9.252;2022-09-16T08:37:58;16.40;59.00
439;DHT22;206;48.782;9.252;2022-09-16T08:40:24;16.40;58.90
439;DHT22;206;48.782;9.252;2022-09-16T08:43:14;16.50;57.40
439;DHT22;206;48.782;9.252;2022-09-16T08:45:48;16.50;56.60
439;DHT22;206;48.782;9.252;2022-09-16T08:50:53;16.60;58.30
439;DHT22;206;48.782;9.252;2022-09-16T08:53:39;16.70;54.60
439;DHT22;206;48.782;9.252;2022-09-16T08:56:12;16.80;54.20
439;DHT22;206;48.782;9.252;2022-09-16T08:58:42;16.80;55.60
439;DHT22;206;48.782;9.252;2022-09-16T09:01:19;16.90;56.30
439;DHT22;206;48.782;9.252;2022-09-16T09:03:48;17.00;57.40
439;DHT22;206;48.782;9.252;2022-09-16T09:22:46;17.60;53.00
439;DHT22;206;48.782;9.252;2022-09-16T09:31:21;17.80;53.00
439;DHT22;206;48.782;9.252;2022-09-16T09:39:27;17.70;51.30
439;DHT22;206;48.782;9.252;2022-09-16T09:42:08;17.70;53.10
439;DHT22;206;48.782;9.252;2022-09-16T09:45:06;17.70;53.10
439;DHT22;206;48.782;9.252;2022-09-16T09:47:45;17.70;53.40
439;DHT22;206;48.782;9.252;2022-09-16T09:50:27;17.50;51.20
439;DHT22;206;48.782;9.252;2022-09-16T09:55:27;17.50;53.20
439;DHT22;206;48.782;9.252;2022-09-16T10:00:49;17.60;52.20
439;DHT22;206;48.782;9.252;2022-09-16T10:03:18;17.70;54.30
439;DHT22;206;48.782;9.252;2022-09-16T10:05:45;17.80;53.00
439;DHT22;206;48.782;9.252;2022-09-16T10:11:01;17.90;48.70
439;DHT22;206;48.782;9.252;2022-09-16T10:13:29;17.90;49.50
439;DHT22;206;48.782;9.252;2022-09-16T10:16:31;18.00;48.70
439;DHT22;206;48.782;9.252;2022-09-16T10:19:03;18.00;48.60
439;DHT22;206;48.782;9.252;2022-09-16T10:21:44;18.00;48.10
439;DHT22;206;48.782;9.252;2022-09-16T10:24:40;17.90;46.60
439;DHT22;206;48.782;9.252;2022-09-16T10:27:22;18.00;44.80
439;DHT22;206;48.782;9.252;2022-09-16T10:30:14;18.10;45.40
439;DHT22;206;48.782;9.252;2022-09-16T10:33:00;18.00;46.30
439;DHT22;206;48.782;9.252;2022-09-16T10:35:29;18.00;45.60
439;DHT22;206;48.782;9.252;2022-09-16T10:40:28;17.80;47.00
439;DHT22;206;48.782;9.252;2022-09-16T10:43:03;17.80;47.30
439;DHT22;206;48.782;9.252;2022-09-16T10:45:33;17.90;47.50
439;DHT22;206;48.782;9.252;2022-09-16T10:48:02;18.00;46.30
439;DHT22;206;48.782;9.252;2022-09-16T10:50:29;17.90;47.00
439;DHT22;206;48.782;9.252;2022-09-16T10:52:55;17.90;47.40
439;DHT22;206;48.782;9.252;2022-09-16T10:57:46;18.00;43.70
439;DHT22;206;48.782;9.252;2022-09-16T11:00:23;18.00;42.20
439;DHT22;206;48.782;9.252;2022-09-16T11:08:45;18.20;42.20
439;DHT22;206;48.782;9.252;2022-09-16T11:37:21;18.10;45.30
439;DHT22;206;48.782;9.252;2022-09-16T11:40:07;18.10;45.20
439;DHT22;206;48.782;9.252;2022-09-16T11:42:42;18.10;45.90
439;DHT22;206;48.782;9.252;2022-09-16T11:48:37;17.90;42.90
439;DHT22;206;48.782;9.252;2022-09-16T11:51:47;18.00;40.20
439;DHT22;206;48.782;9.252;2022-09-16T11:54:40;18.10;39.20
439;DHT22;206;48.782;9.252;2022-09-16T11:57:16;18.20;40.00
439;DHT22;206;48.782;9.252;2022-09-16T11:59:50;18.40;37.10
439;DHT22;206;48.782;9.252;2022-09-16T12:05:02;18.50;36.30
439;DHT22;206;48.782;9.252;2022-09-16T12:11:17;18.90;32.90
439;DHT22;206;48.782;9.252;2022-09-16T12:13:39;19.30;33.00
439;DHT22;206;48.782;9.252;2022-09-16T12:16:12;19.70;29.70
439;DHT22;206;48.782;9.252;2022-09-16T12:18:44;20.00;27.60
439;DHT22;206;48.782;9.252;2022-09-16T12:21:26;20.20;24.70
439;DHT22;206;48.782;9.252;2022-09-16T12:24:36;20.30;25.10
439;DHT22;206;48.782;9.252;2022-09-16T12:29:54;20.50;23.40
439;DHT22;206;48.782;9.252;2022-09-16T12:35:19;20.80;24.40
439;DHT22;206;48.782;9.252;2022-09-16T12:37:49;20.60;24.70
439;DHT22;206;48.782;9.252;2022-09-16T12:40:25;20.30;23.40
439;DHT22;206;48.782;9.252;2022-09-16T12:59:13;19.40;23.80
439;DHT22;206;48.782;9.252;2022-09-16T13:01:48;19.40;23.40
439;DHT22;206;48.782;9.252;2022-09-16T13:04:38;19.50;23.10
439;DHT22;206;48.782;9.252;2022-09-16T13:07:05;19.60;22.70
439;DHT22;206;48.782;9.252;2022-09-16T13:09:37;19.70;22.80
439;DHT22;206;48.782;9.252;2022-09-16T13:12:06;19.70;22.50
439;DHT22;206;48.782;9.252;2022-09-16T13:14:47;19.70;22.70
439;DHT22;206;48.782;9.252;2022-09-16T13:17:13;19.80;23.70
439;DHT22;206;48.782;9.252;2022-09-16T13:19:52;19.80;23.00
439;DHT22;206;48.782;9.252;2022-09-16T13:22:20;19.70;23.60
439;DHT22;206;48.782;9.252;2022-09-16T13:25:11;19.70;23.70
439;DHT22;206;48.782;9.252;2022-09-16T13:27:58;19.60;23.70
439;DHT22;206;48.782;9.252;2022-09-16T13:40:39;19.40;23.40
439;DHT22;206;48.782;9.252;2022-09-16T13:43:16;19.40;23.40
439;DHT22;206;48.782;9.252;2022-09-16T13:45:43;19.50;22.90
439;DHT22;206;48.782;9.252;2022-09-16T13:48:22;19.40;23.40
439;DHT22;206;48.782;9.252;2022-09-16T13:50:59;19.40;23.80
439;DHT22;206;48.782;9.252;2022-09-16T13:53:33;19.30;24.40
439;DHT22;206;48.782;9.252;2022-09-16T14:04:18;19.60;24.70
439;DHT22;206;48.782;9.252;2022-09-16T14:13:06;19.80;23.70
439;DHT22;206;48.782;9.252;2022-09-16T14:15:46;19.90;23.80
439;DHT22;206;48.782;9.252;2022-09-16T14:18:16;20.00;23.80
439;DHT22;206;48.782;9.252;2022-09-16T14:21:19;20.10;24.40
439;DHT22;206;48.782;9.252;2022-09-16T14:23:45;20.10;23.10
439;DHT22;206;48.782;9.252;2022-09-16T14:26:11;20.30;21.40
439;DHT22;206;48.782;9.252;2022-09-16T14:28:38;20.30;21.50
439;DHT22;206;48.782;9.252;2022-09-16T14:31:07;20.40;21.30
439;DHT22;206;48.782;9.252;2022-09-16T14:33:37;20.40;21.30
439;DHT22;206;48.782;9.252;2022-09-16T14:36:15;20.20;21.40
439;DHT22;206;48.782;9.252;2022-09-16T14:39:24;20.10;21.50
439;DHT22;206;48.782;9.252;2022-09-16T14:41:58;19.90;21.40
439;DHT22;206;48.782;9.252;2022-09-16T14:47:29;19.80;22.00
439;DHT22;206;48.782;9.252;2022-09-16T14:50:06;19.80;22.10
439;DHT22;206;48.782;9.252;2022-09-16T14:52:33;19.80;22.40
439;DHT22;206;48.782;9.252;2022-09-16T14:54:59;19.70;22.40
439;DHT22;206;48.782;9.252;2022-09-16T14:57:27;19.60;22.60
439;DHT22;206;48.782;9.252;2022-09-16T15:00:00;19.60;22.20
439;DHT22;206;48.782;9.252;2022-09-16T15:02:37;19.50;22.50
439;DHT22;206;48.782;9.252;2022-09-16T15:07:40;19.40;23.40
439;DHT22;206;48.782;9.252;2022-09-16T15:10:22;19.40;23.40
439;DHT22;206;48.782;9.252;2022-09-16T15:12:58;19.50;22.50
439;DHT22;206;48.782;9.252;2022-09-16T15:15:30;19.60;22.60
439;DHT22;206;48.782;9.252;2022-09-16T15:18:02;19.60;22.60
439;DHT22;206;48.782;9.252;2022-09-16T15:20:36;19.50;23.10
439;DHT22;206;48.782;9.252;2022-09-16T15:23:04;19.40;23.40
439;DHT22;206;48.782;9.252;2022-09-16T15:25:33;19.30;23.40
439;DHT22;206;48.782;9.252;2022-09-16T15:28:13;19.20;23.30
439;DHT22;206;48.782;9.252;2022-09-16T15:30:48;19.10;23.20
439;DHT22;206;48.782;9.252;2022-09-16T15:33:33;19.00;23.90
439;DHT22;206;48.782;9.252;2022-09-16T15:36:01;19.00;24.40
439;DHT22;206;48.782;9.252;2022-09-16T15:38:27;18.90;24.10
439;DHT22;206;48.782;9.252;2022-09-16T15:41:03;18.90;24.50
439;DHT22;206;48.782;9.252;2022-09-16T15:43:35;18.90;24.40
439;DHT22;206;48.782;9.252;2022-09-16T15:46:11;18.70;24.70
439;DHT22;206;48.782;9.252;2022-09-16T15:48:44;18.70;24.50
439;DHT22;206;48.782;9.252;2022-09-16T15:53:47;18.60;24.30
439;DHT22;206;48.782;9.252;2022-09-16T15:56:21;18.70;24.20
439;DHT22;206;48.782;9.252;2022-09-16T15:58:56;18.80;24.40
439;DHT22;206;48.782;9.252;2022-09-16T16:01:42;18.90;24.20
439;DHT22;206;48.782;9.252;2022-09-16T16:04:12;19.10;24.10
439;DHT22;206;48.782;9.252;2022-09-16T16:06:54;19.20;23.30
439;DHT22;206;48.782;9.252;2022-09-16T16:09:32;19.10;23.20
439;DHT22;206;48.782;9.252;2022-09-16T16:12:00;19.20;23.30
439;DHT22;206;48.782;9.252;2022-09-16T16:14:28;19.10;23.20
439;DHT22;206;48.782;9.252;2022-09-16T16:17:00;19.00;23.10
439;DHT22;206;48.782;9.252;2022-09-16T16:19:27;18.80;23.40
439;DHT22;206;48.782;9.252;2022-09-16T16:21:53;18.70;24.50
439;DHT22;206;48.782;9.252;2022-09-16T16:24:22;18.60;25.00
439;DHT22;206;48.782;9.252;2022-09-16T16:26:47;18.50;26.00
439;DHT22;206;48.782;9.252;2022-09-16T16:29:13;18.50;27.00
439;DHT22;206;48.782;9.252;2022-09-16T16:31:38;18.40;27.40
439;DHT22;206;48.782;9.252;2022-09-16T16:34:04;18.40;27.90
439;DHT22;206;48.782;9.252;2022-09-16T16:36:29;18.40;28.80
439;DHT22;206;48.782;9.252;2022-09-16T16:38:55;18.40;28.60
439;DHT22;206;48.782;9.252;2022-09-16T16:41:22;18.40;27.60
439;DHT22;206;48.782;9.252;2022-09-16T16:43:49;18.30;26.60
439;DHT22;206;48.782;9.252;2022-09-16T16:46:15;18.30;26.80
439;DHT22;206;48.782;9.252;2022-09-16T16:48:44;18.30;25.70
439;DHT22;206;48.782;9.252;2022-09-16T16:51:11;18.20;26.30
439;DHT22;206;48.782;9.252;2022-09-16T16:53:38;18.20;26.20
439;DHT22;206;48.782;9.252;2022-09-16T16:56:04;18.10;25.70
439;DHT22;206;48.782;9.252;2022-09-16T16:58:31;18.00;26.20
439;DHT22;206;48.782;9.252;2022-09-16T17:01:15;17.80;26.00
439;DHT22;206;48.782;9.252;2022-09-16T17:03:43;17.70;26.70
439;DHT22;206;48.782;9.252;2022-09-16T17:06:09;17.70;27.00
439;DHT22;206;48.782;9.252;2022-09-16T17:08:35;17.60;27.30
439;DHT22;206;48.782;9.252;2022-09-16T17:11:27;17.50;27.30
439;DHT22;206;48.782;9.252;2022-09-16T17:13:58;17.50;28.00
439;DHT22;206;48.782;9.252;2022-09-16T17:16:24;17.40;28.70
439;DHT22;206;48.782;9.252;2022-09-16T17:18:51;17.40;28.00
439;DHT22;206;48.782;9.252;2022-09-16T17:21:19;17.40;28.10
439;DHT22;206;48.782;9.252;2022-09-16T17:23:45;17.30;27.90
439;DHT22;206;48.782;9.252;2022-09-16T17:26:12;17.00;28.60
439;DHT22;206;48.782;9.252;2022-09-16T17:28:39;16.80;29.80
439;DHT22;206;48.782;9.252;2022-09-16T17:31:20;16.60;30.50
439;DHT22;206;48.782;9.252;2022-09-16T17:33:48;16.50;32.50
439;DHT22;206;48.782;9.252;2022-09-16T17:36:15;16.30;34.90
439;DHT22;206;48.782;9.252;2022-09-16T17:38:42;16.10;39.20
439;DHT22;206;48.782;9.252;2022-09-16T17:41:13;16.00;43.90
439;DHT22;206;48.782;9.252;2022-09-16T17:43:40;15.80;45.50
439;DHT22;206;48.782;9.252;2022-09-16T17:46:10;15.70;43.90
439;DHT22;206;48.782;9.252;2022-09-16T17:48:36;15.70;45.60
439;DHT22;206;48.782;9.252;2022-09-16T17:51:03;15.70;48.00
439;DHT22;206;48.782;9.252;2022-09-16T17:53:29;15.70;50.30
439;DHT22;206;48.782;9.252;2022-09-16T17:56:08;15.70;52.40
439;DHT22;206;48.782;9.252;2022-09-16T17:58:35;15.80;53.70
439;DHT22;206;48.782;9.252;2022-09-16T18:01:11;15.80;51.40
439;DHT22;206;48.782;9.252;2022-09-16T18:03:39;15.90;53.80
439;DHT22;206;48.782;9.252;2022-09-16T18:06:41;15.90;53.80
439;DHT22;206;48.782;9.252;2022-09-16T18:09:04;15.90;53.10
439;DHT22;206;48.782;9.252;2022-09-16T18:11:31;16.00;52.40
439;DHT22;206;48.782;9.252;2022-09-16T18:14:00;16.00;56.20
439;DHT22;206;48.782;9.252;2022-09-16T18:16:27;16.00;54.70
439;DHT22;206;48.782;9.252;2022-09-16T18:18:59;16.00;52.70
439;DHT22;206;48.782;9.252;2022-09-16T18:21:25;16.00;51.30
439;DHT22;206;48.782;9.252;2022-09-16T18:23:59;16.00;49.00
439;DHT22;206;48.782;9.252;2022-09-16T18:26:26;15.90;47.00
439;DHT22;206;48.782;9.252;2022-09-16T18:28:52;15.80;48.70
439;DHT22;206;48.782;9.252;2022-09-16T18:31:20;15.80;46.20
439;DHT22;206;48.782;9.252;2022-09-16T18:33:46;15.60;46.90
439;DHT22;206;48.782;9.252;2022-09-16T18:36:13;15.60;48.70
439;DHT22;206;48.782;9.252;2022-09-16T18:38:40;15.40;49.40
439;DHT22;206;48.782;9.252;2022-09-16T18:41:12;15.50;54.70
439;DHT22;206;48.782;9.252;2022-09-16T18:43:40;15.50;54.40
439;DHT22;206;48.782;9.252;2022-09-16T18:46:11;15.40;52.50
439;DHT22;206;48.782;9.252;2022-09-16T18:48:39;15.40;52.60
439;DHT22;206;48.782;9.252;2022-09-16T18:51:05;15.20;53.00
439;DHT22;206;48.782;9.252;2022-09-16T18:53:31;15.10;54.80
439;DHT22;206;48.782;9.252;2022-09-16T18:55:56;15.10;55.80
439;DHT22;206;48.782;9.252;2022-09-16T18:58:22;15.00;58.90
439;DHT22;206;48.782;9.252;2022-09-16T19:00:48;14.90;60.90
439;DHT22;206;48.782;9.252;2022-09-16T19:03:14;14.90;61.40
439;DHT22;206;48.782;9.252;2022-09-16T19:05:40;14.90;62.50
439;DHT22;206;48.782;9.252;2022-09-16T19:08:06;14.80;62.90
439;DHT22;206;48.782;9.252;2022-09-16T19:10:32;14.80;62.50
439;DHT22;206;48.782;9.252;2022-09-16T19:12:58;14.70;62.40
439;DHT22;206;48.782;9.252;2022-09-16T19:15:25;14.60;62.30
439;DHT22;206;48.782;9.252;2022-09-16T19:17:51;14.60;63.60
439;DHT22;206;48.782;9.252;2022-09-16T19:20:17;14.50;65.10
439;DHT22;206;48.782;9.252;2022-09-16T19:22:43;14.50;66.70
439;DHT22;206;48.782;9.252;2022-09-16T19:25:08;14.40;65.50
439;DHT22;206;48.782;9.252;2022-09-16T19:27:34;14.40;66.20
439;DHT22;206;48.782;9.252;2022-09-16T19:30:00;14.30;67.00
439;DHT22;206;48.782;9.252;2022-09-16T19:32:25;14.30;67.50
439;DHT22;206;48.782;9.252;2022-09-16T19:34:51;14.20;68.10
439;DHT22;206;48.782;9.252;2022-09-16T19:37:16;14.20;70.80
439;DHT22;206;48.782;9.252;2022-09-16T19:39:42;14.20;69.50
439;DHT22;206;48.782;9.252;2022-09-16T19:42:08;14.10;70.70
439;DHT22;206;48.782;9.252;2022-09-16T19:44:34;14.00;65.30
439;DHT22;206;48.782;9.252;2022-09-16T19:47:00;14.10;59.60
439;DHT22;206;48.782;9.252;2022-09-16T19:49:26;14.10;60.00
439;DHT22;206;48.782;9.252;2022-09-16T19:51:52;14.10;58.70
439;DHT22;206;48.782;9.252;2022-09-16T19:54:17;14.10;57.00
439;DHT22;206;48.782;9.252;2022-09-16T19:56:44;14.10;56.40
439;DHT22;206;48.782;9.252;2022-09-16T19:59:09;14.20;53.30
439;DHT22;206;48.782;9.252;2022-09-16T20:01:35;14.30;54.50